Terminal Aerodrome Forecast
Issued by NWS Milwaukee/Sullivan, WI

Home | Current Version | Previous Version | Text Only | Print | Product List | Glossary On
Versions: 1 2 3 4 5 6 7 8 9 10 11 12 13 14
000
FTUS43 KMKX 192320
TAFMSN
TAF
KMSN 192320Z 2000/2024 17006KT P6SM SKC
     FM200400 18006KT P6SM SKC WS020/20030KT
     FM201100 19006KT P6SM SKC
     FM201800 20011KT P6SM FEW250
     FM202300 17010KT P6SM FEW250=

USA.gov is the U.S. government's official web portal to all federal, state and local government web resources and services.